sensor_id;sensor_type;location;lat;lon;timestamp;temperature;humidity
22996;DHT22;11664;49.774;8.650;2023-07-20T00:00:42;18.90;99.90
22996;DHT22;11664;49.774;8.650;2023-07-20T00:03:12;18.80;99.90
22996;DHT22;11664;49.774;8.650;2023-07-20T00:05:47;18.70;99.90
22996;DHT22;11664;49.774;8.650;2023-07-20T00:08:22;18.60;99.90
22996;DHT22;11664;49.774;8.650;2023-07-20T00:10:54;18.50;99.90
22996;DHT22;11664;49.774;8.650;2023-07-20T00:13:20;18.40;99.90
22996;DHT22;11664;49.774;8.650;2023-07-20T00:15:46;18.40;99.90
22996;DHT22;11664;49.774;8.650;2023-07-20T00:18:21;18.30;99.90
22996;DHT22;11664;49.774;8.650;2023-07-20T00:20:52;18.20;99.90
22996;DHT22;11664;49.774;8.650;2023-07-20T00:23:21;18.10;99.90
22996;DHT22;11664;49.774;8.650;2023-07-20T00:26:08;18.00;99.90
22996;DHT22;11664;49.774;8.650;2023-07-20T00:28:39;18.00;99.90
22996;DHT22;11664;49.774;8.650;2023-07-20T00:31:05;17.90;99.90
22996;DHT22;11664;49.774;8.650;2023-07-20T00:33:30;17.90;99.90
22996;DHT22;11664;49.774;8.650;2023-07-20T00:35:56;17.80;99.90
22996;DHT22;11664;49.774;8.650;2023-07-20T00:38:22;17.70;99.90
22996;DHT22;11664;49.774;8.650;2023-07-20T00:40:47;17.60;99.90
22996;DHT22;11664;49.774;8.650;2023-07-20T00:43:15;17.70;99.90
22996;DHT22;11664;49.774;8.650;2023-07-20T00:45:44;17.70;99.90
22996;DHT22;11664;49.774;8.650;2023-07-20T00:48:22;17.80;99.90
22996;DHT22;11664;49.774;8.650;2023-07-20T00:50:48;17.80;99.90
22996;DHT22;11664;49.774;8.650;2023-07-20T00:53:14;17.80;99.90
22996;DHT22;11664;49.774;8.650;2023-07-20T00:55:42;17.90;99.90
22996;DHT22;11664;49.774;8.650;2023-07-20T00:58:08;17.80;99.90
22996;DHT22;11664;49.774;8.650;2023-07-20T01:00:34;17.80;99.90
22996;DHT22;11664;49.774;8.650;2023-07-20T01:03:02;17.70;99.90
22996;DHT22;11664;49.774;8.650;2023-07-20T01:05:38;17.50;99.90
22996;DHT22;11664;49.774;8.650;2023-07-20T01:08:33;17.50;99.90
22996;DHT22;11664;49.774;8.650;2023-07-20T01:11:13;17.40;99.90
22996;DHT22;11664;49.774;8.650;2023-07-20T01:13:43;17.30;99.90
22996;DHT22;11664;49.774;8.650;2023-07-20T01:16:15;17.30;99.90
22996;DHT22;11664;49.774;8.650;2023-07-20T01:18:40;17.20;99.90
22996;DHT22;11664;49.774;8.650;2023-07-20T01:21:23;17.00;99.90
22996;DHT22;11664;49.774;8.650;2023-07-20T01:29:51;16.90;99.90
22996;DHT22;11664;49.774;8.650;2023-07-20T01:32:23;16.80;99.90
22996;DHT22;11664;49.774;8.650;2023-07-20T01:35:27;16.80;99.90
22996;DHT22;11664;49.774;8.650;2023-07-20T01:37:54;16.80;99.90
22996;DHT22;11664;49.774;8.650;2023-07-20T01:40:26;16.80;99.90
22996;DHT22;11664;49.774;8.650;2023-07-20T01:42:55;16.70;99.90
22996;DHT22;11664;49.774;8.650;2023-07-20T01:45:24;16.60;99.90
22996;DHT22;11664;49.774;8.650;2023-07-20T01:47:50;16.40;99.90
22996;DHT22;11664;49.774;8.650;2023-07-20T01:50:15;16.40;99.90
22996;DHT22;11664;49.774;8.650;2023-07-20T01:52:47;16.40;99.90
22996;DHT22;11664;49.774;8.650;2023-07-20T01:55:19;16.40;99.90
22996;DHT22;11664;49.774;8.650;2023-07-20T01:57:50;16.30;99.90
22996;DHT22;11664;49.774;8.650;2023-07-20T02:00:19;16.30;99.90
22996;DHT22;11664;49.774;8.650;2023-07-20T02:02:49;16.40;99.90
22996;DHT22;11664;49.774;8.650;2023-07-20T02:05:15;16.30;99.90
22996;DHT22;11664;49.774;8.650;2023-07-20T02:07:43;16.30;99.90
22996;DHT22;11664;49.774;8.650;2023-07-20T02:10:15;16.20;99.90
22996;DHT22;11664;49.774;8.650;2023-07-20T02:12:44;16.20;99.90
22996;DHT22;11664;49.774;8.650;2023-07-20T02:15:16;16.20;99.90
22996;DHT22;11664;49.774;8.650;2023-07-20T02:17:51;16.20;99.90
22996;DHT22;11664;49.774;8.650;2023-07-20T02:20:28;16.10;99.90
22996;DHT22;11664;49.774;8.650;2023-07-20T02:22:54;16.10;99.90
22996;DHT22;11664;49.774;8.650;2023-07-20T02:25:26;16.20;99.90
22996;DHT22;11664;49.774;8.650;2023-07-20T02:27:52;16.20;99.90
22996;DHT22;11664;49.774;8.650;2023-07-20T02:30:38;16.10;99.90
22996;DHT22;11664;49.774;8.650;2023-07-20T02:33:04;16.00;99.90
22996;DHT22;11664;49.774;8.650;2023-07-20T02:35:32;15.90;99.90
22996;DHT22;11664;49.774;8.650;2023-07-20T02:37:57;15.90;99.90
22996;DHT22;11664;49.774;8.650;2023-07-20T02:40:25;15.80;99.90
22996;DHT22;11664;49.774;8.650;2023-07-20T02:42:50;15.80;99.90
22996;DHT22;11664;49.774;8.650;2023-07-20T02:45:16;15.80;99.90
22996;DHT22;11664;49.774;8.650;2023-07-20T02:47:42;15.60;99.90
22996;DHT22;11664;49.774;8.650;2023-07-20T02:50:08;15.60;99.90
22996;DHT22;11664;49.774;8.650;2023-07-20T02:52:37;15.60;99.90
22996;DHT22;11664;49.774;8.650;2023-07-20T02:55:08;15.50;99.90
22996;DHT22;11664;49.774;8.650;2023-07-20T02:57:37;15.40;99.90
22996;DHT22;11664;49.774;8.650;2023-07-20T03:00:09;15.30;99.90
22996;DHT22;11664;49.774;8.650;2023-07-20T03:02:38;15.30;99.90
22996;DHT22;11664;49.774;8.650;2023-07-20T03:05:07;15.40;99.90
22996;DHT22;11664;49.774;8.650;2023-07-20T03:07:33;15.50;99.90
22996;DHT22;11664;49.774;8.650;2023-07-20T03:10:05;15.50;99.90
22996;DHT22;11664;49.774;8.650;2023-07-20T03:12:34;15.50;99.90
22996;DHT22;11664;49.774;8.650;2023-07-20T03:15:00;15.50;99.90
22996;DHT22;11664;49.774;8.650;2023-07-20T03:17:25;15.40;99.90
22996;DHT22;11664;49.774;8.650;2023-07-20T03:19:51;15.50;99.90
22996;DHT22;11664;49.774;8.650;2023-07-20T03:22:22;15.50;99.90
22996;DHT22;11664;49.774;8.650;2023-07-20T03:24:50;15.40;99.90
22996;DHT22;11664;49.774;8.650;2023-07-20T03:27:22;15.40;99.90
22996;DHT22;11664;49.774;8.650;2023-07-20T03:29:54;15.40;99.90
22996;DHT22;11664;49.774;8.650;2023-07-20T03:32:22;15.40;99.90
22996;DHT22;11664;49.774;8.650;2023-07-20T03:34:48;15.40;99.90
22996;DHT22;11664;49.774;8.650;2023-07-20T03:37:23;15.40;99.90
22996;DHT22;11664;49.774;8.650;2023-07-20T03:39:51;15.50;99.90
22996;DHT22;11664;49.774;8.650;2023-07-20T03:42:23;15.50;99.90
22996;DHT22;11664;49.774;8.650;2023-07-20T03:44:48;15.60;99.90
22996;DHT22;11664;49.774;8.650;2023-07-20T03:47:39;15.60;99.90
22996;DHT22;11664;49.774;8.650;2023-07-20T03:50:14;15.50;99.90
22996;DHT22;11664;49.774;8.650;2023-07-20T03:52:48;15.50;99.90
22996;DHT22;11664;49.774;8.650;2023-07-20T03:55:30;15.50;99.90
22996;DHT22;11664;49.774;8.650;2023-07-20T03:57:55;15.40;99.90
22996;DHT22;11664;49.774;8.650;2023-07-20T04:00:21;15.40;99.90
22996;DHT22;11664;49.774;8.650;2023-07-20T04:02:46;15.30;99.90
22996;DHT22;11664;49.774;8.650;2023-07-20T04:05:15;15.30;99.90
22996;DHT22;11664;49.774;8.650;2023-07-20T04:07:43;15.40;99.90
22996;DHT22;11664;49.774;8.650;2023-07-20T04:10:09;15.30;99.90
22996;DHT22;11664;49.774;8.650;2023-07-20T04:12:50;15.40;99.90
22996;DHT22;11664;49.774;8.650;2023-07-20T04:15:19;15.50;99.90
22996;DHT22;11664;49.774;8.650;2023-07-20T04:17:45;15.40;99.90
22996;DHT22;11664;49.774;8.650;2023-07-20T04:20:14;15.40;99.90
22996;DHT22;11664;49.774;8.650;2023-07-20T04:22:45;15.40;99.90
22996;DHT22;11664;49.774;8.650;2023-07-20T04:25:11;15.30;99.90
22996;DHT22;11664;49.774;8.650;2023-07-20T04:27:48;15.30;99.90
22996;DHT22;11664;49.774;8.650;2023-07-20T04:30:19;15.40;99.90
22996;DHT22;11664;49.774;8.650;2023-07-20T04:32:46;15.40;99.90
22996;DHT22;11664;49.774;8.650;2023-07-20T04:35:51;15.40;99.90
22996;DHT22;11664;49.774;8.650;2023-07-20T04:38:20;15.50;99.90
22996;DHT22;11664;49.774;8.650;2023-07-20T04:40:48;15.50;99.90
22996;DHT22;11664;49.774;8.650;2023-07-20T04:43:18;15.50;99.90
22996;DHT22;11664;49.774;8.650;2023-07-20T04:45:43;15.60;99.90
22996;DHT22;11664;49.774;8.650;2023-07-20T04:48:10;15.60;99.90
22996;DHT22;11664;49.774;8.650;2023-07-20T04:50:45;15.70;99.90
22996;DHT22;11664;49.774;8.650;2023-07-20T04:53:14;15.70;99.90
22996;DHT22;11664;49.774;8.650;2023-07-20T04:55:40;15.80;99.90
22996;DHT22;11664;49.774;8.650;2023-07-20T04:58:10;15.80;99.90
22996;DHT22;11664;49.774;8.650;2023-07-20T05:00:55;15.90;99.90
22996;DHT22;11664;49.774;8.650;2023-07-20T05:03:26;15.80;99.90
22996;DHT22;11664;49.774;8.650;2023-07-20T05:05:52;15.90;99.90
22996;DHT22;11664;49.774;8.650;2023-07-20T05:08:17;15.80;99.90
22996;DHT22;11664;49.774;8.650;2023-07-20T05:10:46;15.90;99.90
22996;DHT22;11664;49.774;8.650;2023-07-20T05:16:40;16.00;99.90
22996;DHT22;11664;49.774;8.650;2023-07-20T05:19:05;16.10;99.90
22996;DHT22;11664;49.774;8.650;2023-07-20T05:21:31;16.10;99.90
22996;DHT22;11664;49.774;8.650;2023-07-20T05:23:57;16.20;99.90
22996;DHT22;11664;49.774;8.650;2023-07-20T05:26:41;16.20;99.90
22996;DHT22;11664;49.774;8.650;2023-07-20T05:29:07;16.20;99.90
22996;DHT22;11664;49.774;8.650;2023-07-20T05:31:35;16.20;99.90
22996;DHT22;11664;49.774;8.650;2023-07-20T05:34:01;16.20;99.90
22996;DHT22;11664;49.774;8.650;2023-07-20T05:36:26;16.30;99.90
22996;DHT22;11664;49.774;8.650;2023-07-20T05:38:52;16.40;99.90
22996;DHT22;11664;49.774;8.650;2023-07-20T05:41:43;16.50;99.90
22996;DHT22;11664;49.774;8.650;2023-07-20T05:44:14;16.70;99.90
22996;DHT22;11664;49.774;8.650;2023-07-20T05:46:46;16.80;99.90
22996;DHT22;11664;49.774;8.650;2023-07-20T05:49:15;16.90;99.90
22996;DHT22;11664;49.774;8.650;2023-07-20T05:51:43;17.10;99.90
22996;DHT22;11664;49.774;8.650;2023-07-20T05:54:15;17.20;99.90
22996;DHT22;11664;49.774;8.650;2023-07-20T05:56:44;17.20;99.90
22996;DHT22;11664;49.774;8.650;2023-07-20T05:59:10;17.30;99.90
22996;DHT22;11664;49.774;8.650;2023-07-20T06:01:39;17.40;99.90
22996;DHT22;11664;49.774;8.650;2023-07-20T06:04:10;17.50;99.90
22996;DHT22;11664;49.774;8.650;2023-07-20T06:06:44;17.70;99.90
22996;DHT22;11664;49.774;8.650;2023-07-20T06:09:14;17.90;99.90
22996;DHT22;11664;49.774;8.650;2023-07-20T06:11:46;18.00;99.90
22996;DHT22;11664;49.774;8.650;2023-07-20T06:14:18;18.00;99.90
22996;DHT22;11664;49.774;8.650;2023-07-20T06:16:44;18.00;99.90
22996;DHT22;11664;49.774;8.650;2023-07-20T06:19:22;18.10;99.90
22996;DHT22;11664;49.774;8.650;2023-07-20T06:21:51;18.20;99.90
22996;DHT22;11664;49.774;8.650;2023-07-20T06:24:35;18.30;99.90
22996;DHT22;11664;49.774;8.650;2023-07-20T06:27:00;18.20;99.90
22996;DHT22;11664;49.774;8.650;2023-07-20T06:29:29;18.20;99.90
22996;DHT22;11664;49.774;8.650;2023-07-20T06:31:54;18.30;99.90
22996;DHT22;11664;49.774;8.650;2023-07-20T06:34:20;18.40;99.90
22996;DHT22;11664;49.774;8.650;2023-07-20T06:36:49;18.50;99.90
22996;DHT22;11664;49.774;8.650;2023-07-20T06:39:14;18.50;99.90
22996;DHT22;11664;49.774;8.650;2023-07-20T06:41:46;18.70;99.90
22996;DHT22;11664;49.774;8.650;2023-07-20T06:44:15;18.70;99.90
22996;DHT22;11664;49.774;8.650;2023-07-20T06:46:41;18.80;99.90
22996;DHT22;11664;49.774;8.650;2023-07-20T06:49:07;18.70;99.90
22996;DHT22;11664;49.774;8.650;2023-07-20T06:51:33;18.70;99.90
22996;DHT22;11664;49.774;8.650;2023-07-20T06:53:58;18.80;99.90
22996;DHT22;11664;49.774;8.650;2023-07-20T06:56:24;18.90;99.90
22996;DHT22;11664;49.774;8.650;2023-07-20T06:58:49;18.90;99.90
22996;DHT22;11664;49.774;8.650;2023-07-20T07:01:15;19.00;99.90
22996;DHT22;11664;49.774;8.650;2023-07-20T07:03:40;19.20;99.90
22996;DHT22;11664;49.774;8.650;2023-07-20T07:06:06;19.20;99.90
22996;DHT22;11664;49.774;8.650;2023-07-20T07:08:31;19.30;99.90
22996;DHT22;11664;49.774;8.650;2023-07-20T07:10:57;19.40;99.90
22996;DHT22;11664;49.774;8.650;2023-07-20T07:13:26;19.40;99.90
22996;DHT22;11664;49.774;8.650;2023-07-20T07:15:54;19.70;99.90
22996;DHT22;11664;49.774;8.650;2023-07-20T07:18:20;19.90;99.90
22996;DHT22;11664;49.774;8.650;2023-07-20T07:20:52;19.90;99.90
22996;DHT22;11664;49.774;8.650;2023-07-20T07:23:18;20.00;99.90
22996;DHT22;11664;49.774;8.650;2023-07-20T07:25:49;20.10;99.90
22996;DHT22;11664;49.774;8.650;2023-07-20T07:28:22;20.50;99.90
22996;DHT22;11664;49.774;8.650;2023-07-20T07:30:48;20.70;99.90
22996;DHT22;11664;49.774;8.650;2023-07-20T07:33:23;20.60;99.90
22996;DHT22;11664;49.774;8.650;2023-07-20T07:35:49;21.00;99.90
22996;DHT22;11664;49.774;8.650;2023-07-20T07:38:15;20.90;99.90
22996;DHT22;11664;49.774;8.650;2023-07-20T07:40:40;21.00;99.90
22996;DHT22;11664;49.774;8.650;2023-07-20T07:43:06;20.90;99.90
22996;DHT22;11664;49.774;8.650;2023-07-20T07:45:34;20.70;99.90
22996;DHT22;11664;49.774;8.650;2023-07-20T07:48:01;20.30;99.90
22996;DHT22;11664;49.774;8.650;2023-07-20T07:50:31;20.10;99.90
22996;DHT22;11664;49.774;8.650;2023-07-20T07:52:56;20.10;99.90
22996;DHT22;11664;49.774;8.650;2023-07-20T07:55:28;20.10;99.90
22996;DHT22;11664;49.774;8.650;2023-07-20T07:57:54;20.20;99.90
22996;DHT22;11664;49.774;8.650;2023-07-20T08:00:20;20.10;99.90
22996;DHT22;11664;49.774;8.650;2023-07-20T08:02:46;20.10;99.90
22996;DHT22;11664;49.774;8.650;2023-07-20T08:05:23;20.30;99.90
22996;DHT22;11664;49.774;8.650;2023-07-20T08:07:49;20.70;99.90
22996;DHT22;11664;49.774;8.650;2023-07-20T08:10:15;20.60;99.90
22996;DHT22;11664;49.774;8.650;2023-07-20T08:12:40;20.90;99.90
22996;DHT22;11664;49.774;8.650;2023-07-20T08:15:06;21.10;99.90
22996;DHT22;11664;49.774;8.650;2023-07-20T08:17:32;20.90;99.90
22996;DHT22;11664;49.774;8.650;2023-07-20T08:19:57;21.10;99.90
22996;DHT22;11664;49.774;8.650;2023-07-20T08:22:23;20.80;99.90
22996;DHT22;11664;49.774;8.650;2023-07-20T08:24:51;20.90;99.90
22996;DHT22;11664;49.774;8.650;2023-07-20T08:27:16;21.00;99.90
22996;DHT22;11664;49.774;8.650;2023-07-20T08:29:42;20.60;99.90
22996;DHT22;11664;49.774;8.650;2023-07-20T08:32:12;20.80;99.90
22996;DHT22;11664;49.774;8.650;2023-07-20T08:34:42;21.10;99.90
22996;DHT22;11664;49.774;8.650;2023-07-20T08:37:14;21.10;99.90
22996;DHT22;11664;49.774;8.650;2023-07-20T08:39:40;21.20;99.90
22996;DHT22;11664;49.774;8.650;2023-07-20T08:42:06;21.20;99.90
22996;DHT22;11664;49.774;8.650;2023-07-20T08:44:33;20.70;99.90
22996;DHT22;11664;49.774;8.650;2023-07-20T08:47:00;20.90;99.90
22996;DHT22;11664;49.774;8.650;2023-07-20T08:49:27;21.10;99.90
22996;DHT22;11664;49.774;8.650;2023-07-20T08:51:57;21.00;99.90
22996;DHT22;11664;49.774;8.650;2023-07-20T08:54:29;21.20;99.90
22996;DHT22;11664;49.774;8.650;2023-07-20T08:56:58;21.20;99.90
22996;DHT22;11664;49.774;8.650;2023-07-20T08:59:26;21.30;99.90
22996;DHT22;11664;49.774;8.650;2023-07-20T09:01:54;20.80;99.90
22996;DHT22;11664;49.774;8.650;2023-07-20T09:04:23;21.00;99.90
22996;DHT22;11664;49.774;8.650;2023-07-20T09:06:49;21.10;99.90
22996;DHT22;11664;49.774;8.650;2023-07-20T09:09:15;21.40;99.90
22996;DHT22;11664;49.774;8.650;2023-07-20T09:11:41;21.70;99.90
22996;DHT22;11664;49.774;8.650;2023-07-20T09:14:08;22.00;99.90
22996;DHT22;11664;49.774;8.650;2023-07-20T09:16:53;22.30;99.90
22996;DHT22;11664;49.774;8.650;2023-07-20T09:19:20;22.10;99.90
22996;DHT22;11664;49.774;8.650;2023-07-20T09:21:50;22.30;99.90
22996;DHT22;11664;49.774;8.650;2023-07-20T09:24:20;22.50;99.90
22996;DHT22;11664;49.774;8.650;2023-07-20T09:26:47;22.60;99.90
22996;DHT22;11664;49.774;8.650;2023-07-20T09:29:19;23.20;99.90
22996;DHT22;11664;49.774;8.650;2023-07-20T09:32:04;23.00;99.90
22996;DHT22;11664;49.774;8.650;2023-07-20T09:34:31;22.70;99.90
22996;DHT22;11664;49.774;8.650;2023-07-20T09:37:02;22.80;99.90
22996;DHT22;11664;49.774;8.650;2023-07-20T09:39:29;23.30;99.90
22996;DHT22;11664;49.774;8.650;2023-07-20T09:42:00;23.00;99.90
22996;DHT22;11664;49.774;8.650;2023-07-20T09:44:30;22.50;99.90
22996;DHT22;11664;49.774;8.650;2023-07-20T09:46:56;22.10;99.90
22996;DHT22;11664;49.774;8.650;2023-07-20T09:49:21;21.70;99.90
22996;DHT22;11664;49.774;8.650;2023-07-20T09:51:47;21.80;99.90
22996;DHT22;11664;49.774;8.650;2023-07-20T09:54:13;21.60;99.90
22996;DHT22;11664;49.774;8.650;2023-07-20T09:56:40;21.60;99.90
22996;DHT22;11664;49.774;8.650;2023-07-20T09:59:07;21.80;99.90
22996;DHT22;11664;49.774;8.650;2023-07-20T10:01:34;21.90;99.90
22996;DHT22;11664;49.774;8.650;2023-07-20T10:04:03;22.40;99.90
22996;DHT22;11664;49.774;8.650;2023-07-20T10:06:30;22.60;99.90
22996;DHT22;11664;49.774;8.650;2023-07-20T10:09:01;22.40;99.90
22996;DHT22;11664;49.774;8.650;2023-07-20T10:11:30;23.00;99.90
22996;DHT22;11664;49.774;8.650;2023-07-20T10:13:59;23.60;99.90
22996;DHT22;11664;49.774;8.650;2023-07-20T10:16:39;24.30;99.90
22996;DHT22;11664;49.774;8.650;2023-07-20T10:19:48;23.90;99.90
22996;DHT22;11664;49.774;8.650;2023-07-20T10:22:19;24.30;99.90
22996;DHT22;11664;49.774;8.650;2023-07-20T10:24:46;25.00;98.60
22996;DHT22;11664;49.774;8.650;2023-07-20T10:27:15;24.50;99.90
22996;DHT22;11664;49.774;8.650;2023-07-20T10:29:41;24.70;99.90
22996;DHT22;11664;49.774;8.650;2023-07-20T10:32:08;24.30;99.90
22996;DHT22;11664;49.774;8.650;2023-07-20T10:34:34;23.90;99.90
22996;DHT22;11664;49.774;8.650;2023-07-20T10:36:59;23.80;99.50
22996;DHT22;11664;49.774;8.650;2023-07-20T10:39:35;23.60;99.90
22996;DHT22;11664;49.774;8.650;2023-07-20T10:42:08;22.90;99.90
22996;DHT22;11664;49.774;8.650;2023-07-20T10:44:34;23.40;99.90
22996;DHT22;11664;49.774;8.650;2023-07-20T10:47:03;23.90;99.90
22996;DHT22;11664;49.774;8.650;2023-07-20T10:49:33;25.10;98.90
22996;DHT22;11664;49.774;8.650;2023-07-20T10:52:00;25.60;96.20
22996;DHT22;11664;49.774;8.650;2023-07-20T10:57:28;25.30;95.80
22996;DHT22;11664;49.774;8.650;2023-07-20T11:00:11;25.50;95.10
22996;DHT22;11664;49.774;8.650;2023-07-20T11:02:48;24.40;95.50
22996;DHT22;11664;49.774;8.650;2023-07-20T11:08:12;24.60;94.60
22996;DHT22;11664;49.774;8.650;2023-07-20T11:10:43;26.10;95.90
22996;DHT22;11664;49.774;8.650;2023-07-20T11:13:19;24.80;92.80
22996;DHT22;11664;49.774;8.650;2023-07-20T11:18:14;24.60;94.50
22996;DHT22;11664;49.774;8.650;2023-07-20T11:20:41;25.00;94.60
22996;DHT22;11664;49.774;8.650;2023-07-20T11:23:07;25.10;92.60
22996;DHT22;11664;49.774;8.650;2023-07-20T11:25:40;25.70;92.70
22996;DHT22;11664;49.774;8.650;2023-07-20T11:28:09;25.60;91.90
22996;DHT22;11664;49.774;8.650;2023-07-20T11:30:38;26.80;91.60
22996;DHT22;11664;49.774;8.650;2023-07-20T11:33:09;27.80;90.20
22996;DHT22;11664;49.774;8.650;2023-07-20T11:35:45;25.80;90.30
22996;DHT22;11664;49.774;8.650;2023-07-20T11:38:12;25.00;91.30
22996;DHT22;11664;49.774;8.650;2023-07-20T11:40:45;24.90;92.50
22996;DHT22;11664;49.774;8.650;2023-07-20T11:43:12;25.00;91.80
22996;DHT22;11664;49.774;8.650;2023-07-20T11:45:45;25.70;91.80
22996;DHT22;11664;49.774;8.650;2023-07-20T11:48:17;27.10;90.90
22996;DHT22;11664;49.774;8.650;2023-07-20T11:50:43;26.60;89.90
22996;DHT22;11664;49.774;8.650;2023-07-20T11:53:08;26.00;91.00
22996;DHT22;11664;49.774;8.650;2023-07-20T11:55:34;25.10;91.50
22996;DHT22;11664;49.774;8.650;2023-07-20T11:58:07;26.20;91.30
22996;DHT22;11664;49.774;8.650;2023-07-20T12:00:34;27.10;89.70
22996;DHT22;11664;49.774;8.650;2023-07-20T12:03:00;27.20;88.00
22996;DHT22;11664;49.774;8.650;2023-07-20T12:05:26;26.80;87.30
22996;DHT22;11664;49.774;8.650;2023-07-20T12:07:52;26.70;90.70
22996;DHT22;11664;49.774;8.650;2023-07-20T12:10:24;26.40;88.90
22996;DHT22;11664;49.774;8.650;2023-07-20T12:12:53;25.50;90.00
22996;DHT22;11664;49.774;8.650;2023-07-20T12:15:24;25.70;89.10
22996;DHT22;11664;49.774;8.650;2023-07-20T12:17:53;25.00;88.60
22996;DHT22;11664;49.774;8.650;2023-07-20T12:20:45;24.60;90.30
22996;DHT22;11664;49.774;8.650;2023-07-20T12:23:13;24.20;91.20
22996;DHT22;11664;49.774;8.650;2023-07-20T12:25:44;24.10;91.90
22996;DHT22;11664;49.774;8.650;2023-07-20T12:28:12;23.90;91.80
22996;DHT22;11664;49.774;8.650;2023-07-20T12:30:38;23.90;92.00
22996;DHT22;11664;49.774;8.650;2023-07-20T12:33:04;23.90;93.00
22996;DHT22;11664;49.774;8.650;2023-07-20T12:35:31;23.80;93.00
22996;DHT22;11664;49.774;8.650;2023-07-20T12:37:57;23.60;92.90
22996;DHT22;11664;49.774;8.650;2023-07-20T12:40:22;23.40;92.90
22996;DHT22;11664;49.774;8.650;2023-07-20T12:42:48;23.50;93.00
22996;DHT22;11664;49.774;8.650;2023-07-20T12:45:14;23.60;93.20
22996;DHT22;11664;49.774;8.650;2023-07-20T12:47:40;23.70;93.40
22996;DHT22;11664;49.774;8.650;2023-07-20T12:50:06;23.60;93.20
22996;DHT22;11664;49.774;8.650;2023-07-20T12:52:36;23.80;93.40
22996;DHT22;11664;49.774;8.650;2023-07-20T12:55:02;23.80;92.40
22996;DHT22;11664;49.774;8.650;2023-07-20T12:57:28;23.90;93.40
22996;DHT22;11664;49.774;8.650;2023-07-20T12:59:53;23.90;93.00
22996;DHT22;11664;49.774;8.650;2023-07-20T13:02:19;23.80;93.00
22996;DHT22;11664;49.774;8.650;2023-07-20T13:04:44;23.60;93.80
22996;DHT22;11664;49.774;8.650;2023-07-20T13:07:10;23.50;94.80
22996;DHT22;11664;49.774;8.650;2023-07-20T13:09:42;23.80;94.00
22996;DHT22;11664;49.774;8.650;2023-07-20T13:12:10;23.90;94.00
22996;DHT22;11664;49.774;8.650;2023-07-20T13:14:36;23.90;94.00
22996;DHT22;11664;49.774;8.650;2023-07-20T13:17:01;23.90;93.50
22996;DHT22;11664;49.774;8.650;2023-07-20T13:19:27;24.00;94.10
22996;DHT22;11664;49.774;8.650;2023-07-20T13:21:52;23.90;93.40
22996;DHT22;11664;49.774;8.650;2023-07-20T13:24:18;24.20;94.10
22996;DHT22;11664;49.774;8.650;2023-07-20T13:26:43;24.20;93.40
22996;DHT22;11664;49.774;8.650;2023-07-20T13:35:02;25.50;91.50
22996;DHT22;11664;49.774;8.650;2023-07-20T13:37:28;25.00;91.40
22996;DHT22;11664;49.774;8.650;2023-07-20T13:40:00;24.60;90.80
22996;DHT22;11664;49.774;8.650;2023-07-20T13:42:25;24.40;91.20
22996;DHT22;11664;49.774;8.650;2023-07-20T13:44:57;24.70;91.10
22996;DHT22;11664;49.774;8.650;2023-07-20T13:47:23;24.80;90.10
22996;DHT22;11664;49.774;8.650;2023-07-20T13:49:51;25.30;90.80
22996;DHT22;11664;49.774;8.650;2023-07-20T13:52:17;26.10;88.60
22996;DHT22;11664;49.774;8.650;2023-07-20T13:54:42;26.90;88.00
22996;DHT22;11664;49.774;8.650;2023-07-20T13:57:08;27.70;84.50
22996;DHT22;11664;49.774;8.650;2023-07-20T13:59:34;27.10;81.90
22996;DHT22;11664;49.774;8.650;2023-07-20T14:02:00;27.80;84.50
22996;DHT22;11664;49.774;8.650;2023-07-20T14:04:25;28.00;80.90
22996;DHT22;11664;49.774;8.650;2023-07-20T14:06:51;26.20;83.60
22996;DHT22;11664;49.774;8.650;2023-07-20T14:09:16;26.60;81.80
22996;DHT22;11664;49.774;8.650;2023-07-20T14:11:42;26.40;80.30
22996;DHT22;11664;49.774;8.650;2023-07-20T14:14:08;26.90;83.50
22996;DHT22;11664;49.774;8.650;2023-07-20T14:16:33;27.40;80.60
22996;DHT22;11664;49.774;8.650;2023-07-20T14:18:59;26.50;83.00
22996;DHT22;11664;49.774;8.650;2023-07-20T14:21:24;27.30;80.90
22996;DHT22;11664;49.774;8.650;2023-07-20T14:23:51;27.70;77.30
22996;DHT22;11664;49.774;8.650;2023-07-20T14:26:18;26.50;79.00
22996;DHT22;11664;49.774;8.650;2023-07-20T14:28:44;28.30;79.30
22996;DHT22;11664;49.774;8.650;2023-07-20T14:31:10;30.30;76.00
22996;DHT22;11664;49.774;8.650;2023-07-20T14:33:35;31.20;68.90
22996;DHT22;11664;49.774;8.650;2023-07-20T14:36:01;30.00;72.80
22996;DHT22;11664;49.774;8.650;2023-07-20T14:38:28;30.20;72.20
22996;DHT22;11664;49.774;8.650;2023-07-20T14:40:54;29.20;70.10
22996;DHT22;11664;49.774;8.650;2023-07-20T14:43:20;27.60;73.90
22996;DHT22;11664;49.774;8.650;2023-07-20T14:45:46;27.40;75.30
22996;DHT22;11664;49.774;8.650;2023-07-20T14:48:12;27.60;75.00
22996;DHT22;11664;49.774;8.650;2023-07-20T14:50:40;27.10;75.60
22996;DHT22;11664;49.774;8.650;2023-07-20T14:53:06;27.30;79.10
22996;DHT22;11664;49.774;8.650;2023-07-20T14:55:35;27.20;75.50
22996;DHT22;11664;49.774;8.650;2023-07-20T14:58:00;28.60;75.20
22996;DHT22;11664;49.774;8.650;2023-07-20T15:00:29;31.00;68.00
22996;DHT22;11664;49.774;8.650;2023-07-20T15:02:55;31.00;65.50
22996;DHT22;11664;49.774;8.650;2023-07-20T15:05:22;32.10;62.30
22996;DHT22;11664;49.774;8.650;2023-07-20T15:07:49;32.20;64.00
22996;DHT22;11664;49.774;8.650;2023-07-20T15:10:15;29.20;67.40
22996;DHT22;11664;49.774;8.650;2023-07-20T15:12:40;28.50;68.40
22996;DHT22;11664;49.774;8.650;2023-07-20T15:15:13;26.90;72.20
22996;DHT22;11664;49.774;8.650;2023-07-20T15:17:43;26.40;71.70
22996;DHT22;11664;49.774;8.650;2023-07-20T15:20:11;27.40;72.70
22996;DHT22;11664;49.774;8.650;2023-07-20T15:22:37;29.00;68.80
22996;DHT22;11664;49.774;8.650;2023-07-20T15:25:05;29.70;67.80
22996;DHT22;11664;49.774;8.650;2023-07-20T15:27:35;28.20;68.50
22996;DHT22;11664;49.774;8.650;2023-07-20T15:30:00;27.10;71.50
22996;DHT22;11664;49.774;8.650;2023-07-20T15:32:26;29.10;67.30
22996;DHT22;11664;49.774;8.650;2023-07-20T15:34:52;30.00;63.40
22996;DHT22;11664;49.774;8.650;2023-07-20T15:37:17;30.50;61.50
22996;DHT22;11664;49.774;8.650;2023-07-20T15:39:49;32.20;61.70
22996;DHT22;11664;49.774;8.650;2023-07-20T15:42:15;30.20;64.90
22996;DHT22;11664;49.774;8.650;2023-07-20T15:44:43;28.20;67.80
22996;DHT22;11664;49.774;8.650;2023-07-20T15:47:25;27.60;70.30
22996;DHT22;11664;49.774;8.650;2023-07-20T15:49:55;27.00;72.00
22996;DHT22;11664;49.774;8.650;2023-07-20T15:52:22;27.30;71.60
22996;DHT22;11664;49.774;8.650;2023-07-20T15:54:56;26.90;71.60
22996;DHT22;11664;49.774;8.650;2023-07-20T15:57:22;26.60;72.00
22996;DHT22;11664;49.774;8.650;2023-07-20T15:59:48;26.80;72.50
22996;DHT22;11664;49.774;8.650;2023-07-20T16:02:14;29.30;65.50
22996;DHT22;11664;49.774;8.650;2023-07-20T16:04:40;30.60;64.50